Time;durP1;ratioP1;P1;durP2;ratioP2;P2;SDS_P1;SDS_P2;PMS_P1;PMS_P2;Temp;Humidity;BMP_temperature;BMP_pressure;BME280_temperature;BME280_humidity;BME280_pressure;Samples;Min_cycle;Max_cycle;Signal;HPM_P1;HPM_P2
2021/11/11 00:01:36;;;;;;;;;92.67;68.00;;;;;6.03;82.55;102119.41;5061474;28;45287;-69
2021/11/11 00:04:01;;;;;;;;;92.00;68.25;;;;;6.00;83.10;102113.31;5060530;28;45418;-69
2021/11/11 00:06:27;;;;;;;;;94.50;68.75;;;;;6.02;82.31;102116.81;5054633;28;45546;-68
2021/11/11 00:08:52;;;;;;;;;90.25;66.75;;;;;5.99;82.69;102119.31;5058251;28;45626;-68
2021/11/11 00:11:17;;;;;;;;;97.00;69.33;;;;;5.95;82.29;102107.22;5061099;28;45331;-68
2021/11/11 00:13:43;;;;;;;;;87.33;67.67;;;;;5.91;82.90;102113.19;5061031;28;45293;-69
2021/11/11 00:16:08;;;;;;;;;89.00;68.00;;;;;5.88;82.33;102120.88;5060743;28;45933;-68
2021/11/11 00:18:33;;;;;;;;;89.75;67.75;;;;;5.82;81.93;102118.22;5059867;28;45418;-68
2021/11/11 00:20:59;;;;;;;;;87.00;64.33;;;;;5.79;82.35;102119.88;5059758;28;45351;-68
2021/11/11 00:23:24;;;;;;;;;85.50;66.75;;;;;5.74;82.21;102100.03;5053485;28;45544;-68
2021/11/11 00:25:50;;;;;;;;;88.00;66.25;;;;;5.72;82.63;102101.72;5051257;28;45474;-68
2021/11/11 00:28:15;;;;;;;;;90.25;64.75;;;;;5.73;83.16;102104.31;5058509;28;45545;-68
2021/11/11 00:30:41;;;;;;;;;91.75;68.50;;;;;5.71;82.67;102106.03;5058546;28;45600;-68
2021/11/11 00:33:06;;;;;;;;;89.50;68.50;;;;;5.71;83.45;102103.44;5058766;28;46458;-68
2021/11/11 00:35:33;;;;;;;;;99.00;75.25;;;;;5.68;82.77;102093.09;5057852;28;45722;-68
2021/11/11 00:37:59;;;;;;;;;96.75;67.75;;;;;5.65;83.30;102084.44;5060347;28;45296;-68
2021/11/11 00:40:27;;;;;;;;;89.00;68.75;;;;;5.65;82.45;102077.56;5060756;28;45342;-68
2021/11/11 00:42:52;;;;;;;;;92.25;71.25;;;;;5.66;82.63;102075.84;5060875;28;45465;-69
2021/11/11 00:45:18;;;;;;;;;93.00;73.25;;;;;5.63;82.63;102078.41;5060204;28;45414;-68
2021/11/11 00:47:45;;;;;;;;;92.75;69.75;;;;;5.61;82.50;102080.97;5059340;28;45268;-69
2021/11/11 00:50:12;;;;;;;;;95.00;70.75;;;;;5.60;82.61;102086.94;5060959;28;45415;-69
2021/11/11 00:52:38;;;;;;;;;97.00;70.25;;;;;5.57;82.29;102080.88;5060428;28;45326;-69
2021/11/11 00:55:05;;;;;;;;;99.00;77.50;;;;;5.53;82.12;102092.84;5053414;28;45669;-68
2021/11/11 00:57:31;;;;;;;;;92.50;71.25;;;;;5.50;82.49;102096.25;5059074;28;45295;-69
2021/11/11 00:59:57;;;;;;;;;93.00;71.25;;;;;5.48;82.63;102089.34;5059962;28;45361;-69
2021/11/11 01:02:23;;;;;;;;;92.25;67.25;;;;;5.44;81.99;102083.28;5060189;28;45770;-69
2021/11/11 01:04:48;;;;;;;;;92.00;69.75;;;;;5.39;82.64;102076.31;5060071;28;47314;-69
2021/11/11 01:07:14;;;;;;;;;97.50;70.00;;;;;5.35;82.21;102079.69;5058632;28;45264;-68
2021/11/11 01:09:40;;;;;;;;;91.50;65.50;;;;;5.32;83.25;102074.50;5053831;28;45995;-69
2021/11/11 01:12:07;;;;;;;;;92.75;70.25;;;;;5.33;82.26;102073.63;5060115;28;45291;-67
2021/11/11 01:14:33;;;;;;;;;92.75;67.25;;;;;5.32;82.82;102074.50;5059940;28;45394;-67
2021/11/11 01:16:59;;;;;;;;;96.25;69.50;;;;;5.31;82.92;102077.91;5060099;28;45575;-67
2021/11/11 01:19:24;;;;;;;;;91.50;69.25;;;;;5.30;82.91;102069.31;5059672;28;45505;-67
2021/11/11 01:21:51;;;;;;;;;92.50;69.75;;;;;5.29;83.01;102075.31;5060252;28;45489;-67
2021/11/11 01:24:17;;;;;;;;;87.50;65.25;;;;;5.30;83.31;102076.19;5047578;28;45466;-67
2021/11/11 01:26:44;;;;;;;;;90.25;66.75;;;;;5.30;83.86;102063.28;5060130;28;45387;-67
2021/11/11 01:29:09;;;;;;;;;91.00;68.00;;;;;5.30;83.46;102063.28;5059061;28;45359;-68
2021/11/11 01:31:35;;;;;;;;;88.75;68.50;;;;;5.29;83.43;102059.84;5060146;28;45332;-68
2021/11/11 01:34:00;;;;;;;;;99.50;72.00;;;;;5.29;83.20;102067.56;5059902;28;46191;-68
2021/11/11 01:36:25;;;;;;;;;89.75;65.00;;;;;5.29;83.05;102077.03;5058859;28;45298;-69
2021/11/11 01:38:51;;;;;;;;;91.00;69.00;;;;;5.26;83.40;102054.66;5059998;28;45199;-68
2021/11/11 01:41:17;;;;;;;;;95.50;69.50;;;;;5.24;83.03;102066.66;5059967;28;45435;-68
2021/11/11 01:43:43;;;;;;;;;93.00;69.00;;;;;5.24;84.01;102068.34;5059775;28;46087;-68
2021/11/11 01:46:08;;;;;;;;;79.50;55.25;;;;;5.24;83.87;102058.06;5057031;28;45296;-68
2021/11/11 01:48:33;;;;;;;;;93.00;70.50;;;;;5.23;83.72;102049.44;5060005;28;45485;-69
2021/11/11 01:50:59;;;;;;;;;91.50;68.75;;;;;5.23;83.41;102051.16;5059740;28;45387;-69
2021/11/11 01:53:24;;;;;;;;;85.25;66.00;;;;;5.23;83.53;102051.16;5053099;28;46032;-69
2021/11/11 01:55:51;;;;;;;;;88.75;68.25;;;;;5.21;84.06;102047.69;5059631;28;45323;-69
2021/11/11 01:58:18;;;;;;;;;81.75;64.25;;;;;5.19;83.87;102052.78;5059932;28;45279;-69
2021/11/11 02:00:49;;;;;;;;;80.75;61.25;;;;;5.17;83.52;102054.50;5059349;28;45468;-69
2021/11/11 02:03:15;;;;;;;;;88.75;66.50;;;;;5.14;83.36;102042.44;5059754;28;46446;-69
2021/11/11 02:05:42;;;;;;;;;84.75;65.50;;;;;5.09;83.02;102035.47;5059804;28;45639;-71
2021/11/11 02:08:08;;;;;;;;;84.50;64.25;;;;;5.09;83.02;102035.47;5059492;28;45373;-71
2021/11/11 02:10:35;;;;;;;;;90.50;67.00;;;;;5.08;83.47;102044.91;5052230;28;45252;-71
2021/11/11 02:13:04;;;;;;;;;86.75;67.25;;;;;5.04;83.36;102034.53;5054415;28;46078;-68
2021/11/11 02:15:30;;;;;;;;;91.25;67.00;;;;;5.05;83.31;102044.00;5059137;28;45729;-68
2021/11/11 02:17:55;;;;;;;;;83.50;64.00;;;;;5.03;83.41;102040.53;5058916;28;45391;-69
2021/11/11 02:20:27;;;;;;;;;82.00;60.50;;;;;5.02;83.68;102031.94;5058313;28;45322;-68
2021/11/11 02:22:54;;;;;;;;;85.75;64.50;;;;;4.97;83.54;102018.09;5058584;28;45387;-69
2021/11/11 02:25:23;;;;;;;;;86.00;67.25;;;;;4.97;83.10;102028.41;5048250;28;45653;-69
2021/11/11 02:27:52;;;;;;;;;83.00;63.50;;;;;4.97;83.86;102025.81;5059299;28;45184;-69
2021/11/11 02:30:19;;;;;;;;;59.00;42.75;;;;;4.98;83.93;102035.28;5059282;28;45468;-66
2021/11/11 02:32:46;;;;;;;;;90.00;68.25;;;;;4.98;83.87;102042.16;5059059;28;46035;-66
2021/11/11 02:35:14;;;;;;;;;90.75;64.25;;;;;4.95;82.99;102047.25;5059390;28;45395;-67
2021/11/11 02:37:40;;;;;;;;;90.00;67.25;;;;;4.93;83.07;102043.78;5058082;28;45425;-67
2021/11/11 02:40:15;;;;;;;;;89.50;69.00;;;;;4.91;82.80;102053.22;5059140;28;45344;-67
2021/11/11 02:42:43;;;;;;;;;87.00;65.50;;;;;4.85;83.26;102049.69;5063069;28;45352;-67
2021/11/11 02:45:14;;;;;;;;;87.50;67.75;;;;;4.79;83.54;102036.69;5061162;28;45776;-67
2021/11/11 02:47:40;;;;;;;;;87.00;67.00;;;;;4.86;83.65;102048.00;5061359;28;45225;-67
2021/11/11 02:50:07;;;;;;;;;92.25;67.75;;;;;4.84;83.21;102035.09;5062891;28;45321;-67
2021/11/11 02:52:33;;;;;;;;;93.00;68.00;;;;;4.79;83.67;102025.53;5062308;28;46092;-67
2021/11/11 02:54:59;;;;;;;;;94.75;67.25;;;;;4.85;82.81;102046.25;5056284;28;45502;-66
2021/11/11 02:57:34;;;;;;;;;79.50;59.50;;;;;4.81;83.62;102034.16;5062625;28;45349;-66
2021/11/11 03:00:05;;;;;;;;;87.00;66.00;;;;;4.83;83.78;102040.22;5062055;28;45616;-66
2021/11/11 03:02:33;;;;;;;;;90.00;65.75;;;;;4.83;84.26;102051.38;5062604;28;45442;-66
2021/11/11 03:05:00;;;;;;;;;83.25;63.25;;;;;4.83;83.50;102045.38;5062271;28;45746;-66
2021/11/11 03:07:26;;;;;;;;;89.00;70.00;;;;;4.83;83.39;102047.94;5062763;28;45350;-68
2021/11/11 03:09:52;;;;;;;;;90.00;69.00;;;;;4.80;82.79;102040.13;5062075;28;45362;-70
2021/11/11 03:12:19;;;;;;;;;84.25;63.50;;;;;4.78;83.17;102044.38;5062512;28;45232;-69
2021/11/11 03:14:46;;;;;;;;;93.25;69.75;;;;;4.75;83.56;102046.91;5045357;28;45458;-69
2021/11/11 03:17:12;;;;;;;;;86.00;63.00;;;;;4.75;83.97;102044.34;5062263;28;45248;-69
2021/11/11 03:19:39;;;;;;;;;85.50;65.25;;;;;4.71;82.78;102032.25;5061459;28;45508;-69
2021/11/11 03:22:11;;;;;;;;;91.50;68.75;;;;;4.70;83.20;102041.69;5062286;28;45445;-68
2021/11/11 03:24:38;;;;;;;;;79.75;65.25;;;;;4.66;83.08;102033.91;5050688;28;45426;-68
2021/11/11 03:27:05;;;;;;;;;83.50;62.75;;;;;4.63;83.45;102031.28;5062506;28;45458;-71
2021/11/11 03:29:31;;;;;;;;;89.25;65.75;;;;;4.60;82.99;102032.06;5061744;28;45419;-69
2021/11/11 03:31:57;;;;;;;;;81.50;61.75;;;;;4.56;83.88;102035.44;5062028;28;46266;-67
2021/11/11 03:34:23;;;;;;;;;82.50;62.00;;;;;4.56;83.70;102038.88;5061789;28;45222;-67
2021/11/11 03:36:53;;;;;;;;;78.75;61.50;;;;;4.56;83.28;102041.44;5062190;28;45276;-67
2021/11/11 03:39:20;;;;;;;;;92.50;70.00;;;;;4.56;83.35;102049.16;5061655;28;45384;-67
2021/11/11 03:41:48;;;;;;;;;89.00;64.00;;;;;4.55;83.21;102047.44;5061827;28;46336;-68
2021/11/11 03:44:15;;;;;;;;;85.50;65.25;;;;;4.53;83.16;102046.53;5060839;27;45584;-69
2021/11/11 03:46:42;;;;;;;;;92.50;66.50;;;;;4.55;83.68;102055.16;5060628;28;45300;-69
2021/11/11 03:49:08;;;;;;;;;88.00;65.00;;;;;4.55;83.21;102059.44;5058216;28;45562;-66
2021/11/11 03:51:34;;;;;;;;;84.50;65.25;;;;;4.54;82.97;102053.41;5051897;28;45441;-67
2021/11/11 03:54:00;;;;;;;;;84.00;63.75;;;;;4.54;82.87;102056.00;5053938;28;45443;-66
2021/11/11 03:56:25;;;;;;;;;89.75;66.25;;;;;4.51;82.56;102050.78;5061830;28;45478;-65
2021/11/11 03:58:50;;;;;;;;;79.50;61.00;;;;;4.48;82.39;102044.72;5061504;28;45334;-65
2021/11/11 04:01:16;;;;;;;;;85.25;61.75;;;;;4.45;82.96;102044.69;5059947;28;46101;-66
2021/11/11 04:03:42;;;;;;;;;86.00;63.25;;;;;4.40;83.17;102048.84;5058971;28;45473;-65
2021/11/11 04:06:08;;;;;;;;;84.50;63.50;;;;;4.38;82.68;102051.41;5059380;28;45544;-65
2021/11/11 04:08:34;;;;;;;;;82.50;61.00;;;;;4.35;82.91;102038.47;5058625;28;45318;-65
2021/11/11 04:11:00;;;;;;;;;88.00;62.00;;;;;4.35;82.47;102048.78;5059096;28;45426;-65
2021/11/11 04:13:25;;;;;;;;;84.00;62.00;;;;;4.30;82.27;102044.38;5058837;28;45506;-66
2021/11/11 04:15:51;;;;;;;;;76.00;57.25;;;;;4.28;82.37;102058.09;5053075;28;45306;-65
2021/11/11 04:18:16;;;;;;;;;77.25;57.25;;;;;4.21;82.35;102055.38;5057232;28;45354;-65
2021/11/11 04:20:42;;;;;;;;;79.25;63.00;;;;;4.27;83.07;102065.78;5058858;28;46719;-65
2021/11/11 04:23:07;;;;;;;;;80.75;59.00;;;;;4.24;82.25;102068.31;5057313;28;45382;-65
2021/11/11 04:28:22;;;;;;;;;79.25;61.25;;;;;4.19;82.63;102073.31;5047514;28;45416;-65
2021/11/11 04:30:51;;;;;;;;;74.75;59.50;;;;;4.19;82.19;102080.19;5060648;28;45639;-65
2021/11/11 04:33:17;;;;;;;;;79.50;58.50;;;;;4.15;82.20;102086.09;5061191;28;45458;-65
2021/11/11 04:35:47;;;;;;;;;74.75;58.25;;;;;4.12;82.23;102086.06;5059842;28;45391;-63
2021/11/11 05:04:12;;;;;;;;;74.33;55.67;;;;;3.86;82.06;102082.94;5060640;28;45247;-66
2021/11/11 05:06:38;;;;;;;;;68.75;53.50;;;;;3.84;82.71;102088.06;5060442;28;45229;-66
2021/11/11 05:09:03;;;;;;;;;73.00;55.00;;;;;3.81;82.05;102094.84;5059107;28;45157;-66
2021/11/11 05:11:28;;;;;;;;;69.25;55.25;;;;;3.78;82.12;102103.31;5060154;28;45402;-66
2021/11/11 05:13:54;;;;;;;;;76.00;57.25;;;;;3.78;81.85;102103.31;5060366;28;45208;-66
2021/11/11 05:16:19;;;;;;;;;56.25;35.75;;;;;3.75;82.40;102110.09;5060299;28;45332;-67
2021/11/11 05:18:45;;;;;;;;;70.25;57.00;;;;;3.70;82.44;102097.16;5049961;28;45205;-66
2021/11/11 05:21:10;;;;;;;;;70.75;52.75;;;;;3.75;82.82;102094.69;5055954;28;47027;-66
2021/11/11 05:23:37;;;;;;;;;76.50;57.75;;;;;3.72;81.90;102095.50;5053490;28;45288;-68
2021/11/11 05:26:03;;;;;;;;;70.00;51.75;;;;;3.75;82.53;102103.25;5055891;28;45438;-68
2021/11/11 05:28:28;;;;;;;;;63.75;51.50;;;;;3.70;82.61;102092.00;5060301;28;45293;-68
2021/11/11 05:30:54;;;;;;;;;72.50;57.00;;;;;3.76;83.00;102097.28;5059612;28;47103;-68
2021/11/11 05:33:19;;;;;;;;;77.00;60.00;;;;;3.76;82.43;102097.28;5060043;28;45330;-70
2021/11/11 05:35:44;;;;;;;;;75.50;58.50;;;;;3.74;82.31;102101.53;5060200;28;45512;-70
2021/11/11 05:38:10;;;;;;;;;69.00;52.00;;;;;3.76;82.62;102111.84;5059909;28;45249;-71
2021/11/11 05:40:35;;;;;;;;;64.00;53.75;;;;;3.74;82.34;102109.25;5059702;28;45335;-69
2021/11/11 05:43:01;;;;;;;;;70.75;56.00;;;;;3.76;82.04;102115.28;5060045;28;45439;-71
2021/11/11 05:45:27;;;;;;;;;75.00;58.00;;;;;3.76;82.78;102114.41;5056914;28;45438;-68
2021/11/11 05:47:52;;;;;;;;;72.50;55.50;;;;;3.76;82.95;102116.97;5057730;28;46218;-69
2021/11/11 05:50:19;;;;;;;;;70.50;55.75;;;;;3.72;83.30;102105.75;5058871;28;45769;-69
2021/11/11 05:52:44;;;;;;;;;71.50;53.75;;;;;3.73;83.01;102116.91;5058897;28;45574;-68
2021/11/11 05:55:10;;;;;;;;;70.50;53.00;;;;;3.75;82.03;102120.38;5050950;28;45417;-67
2021/11/11 05:57:37;;;;;;;;;73.00;57.50;;;;;3.74;82.95;102134.94;5050231;28;45469;-67
2021/11/11 06:00:06;;;;;;;;;74.50;57.00;;;;;3.75;82.52;102136.69;5048597;28;45411;-66
2021/11/11 06:02:31;;;;;;;;;70.25;55.00;;;;;3.76;82.70;102141.00;5049845;28;45703;-67
2021/11/11 06:04:57;;;;;;;;;69.75;53.75;;;;;3.79;82.80;102141.06;5049883;28;45452;-68
2021/11/11 06:07:22;;;;;;;;;68.75;54.00;;;;;3.79;81.92;102148.78;5054268;28;45560;-67
2021/11/11 06:09:47;;;;;;;;;70.25;54.50;;;;;3.81;82.56;102143.69;5049097;28;46142;-67
2021/11/11 06:12:13;;;;;;;;;67.75;55.25;;;;;3.85;82.52;102145.50;5049525;28;45237;-67
2021/11/11 06:14:38;;;;;;;;;71.00;52.67;;;;;3.83;81.85;102160.88;5049428;28;45252;-66
2021/11/11 06:17:06;;;;;;;;;70.50;54.25;;;;;3.82;83.05;102172.00;5053623;28;45205;-67
2021/11/11 06:19:34;;;;;;;;;70.00;55.75;;;;;3.78;82.26;102170.19;5054793;28;47334;-68
2021/11/11 06:21:59;;;;;;;;;66.25;52.50;;;;;3.75;82.04;102170.09;5052560;28;45733;-67
2021/11/11 06:24:25;;;;;;;;;70.25;56.00;;;;;3.80;82.60;102173.66;5057537;28;45438;-67
2021/11/11 06:26:51;;;;;;;;;66.25;51.25;;;;;3.80;82.92;102183.94;5062975;28;45241;-66
2021/11/11 06:29:16;;;;;;;;;68.00;55.00;;;;;3.80;83.00;102194.22;5065742;28;46264;-71
2021/11/11 06:31:42;;;;;;;;;67.00;51.25;;;;;3.83;82.44;102202.03;5065941;28;45340;-68
2021/11/11 06:34:07;;;;;;;;;69.25;55.25;;;;;3.81;82.33;102202.84;5066092;28;45236;-68
2021/11/11 06:36:33;;;;;;;;;78.00;60.25;;;;;3.81;82.68;102203.69;5065951;28;45222;-68
2021/11/11 06:38:58;;;;;;;;;70.00;55.75;;;;;3.83;82.51;102207.19;5065518;28;46261;-69
2021/11/11 06:41:24;;;;;;;;;72.50;55.50;;;;;3.82;82.69;102202.88;5065905;28;45371;-69
2021/11/11 06:43:49;;;;;;;;;72.75;54.50;;;;;3.90;82.23;102216.75;5061932;28;45386;-68
2021/11/11 06:46:14;;;;;;;;;76.25;57.00;;;;;4.00;82.44;102227.25;5048281;28;45431;-69
2021/11/11 06:48:41;;;;;;;;;67.50;52.75;;;;;4.05;81.69;102225.69;5058821;28;45504;-67
2021/11/11 06:51:07;;;;;;;;;76.00;59.25;;;;;4.13;81.67;102226.72;5065817;28;45224;-67
2021/11/11 06:53:33;;;;;;;;;73.25;60.75;;;;;4.19;81.53;102226.84;5053586;28;45409;-67
2021/11/11 06:55:58;;;;;;;;;69.50;54.75;;;;;4.27;81.28;102231.34;5054664;28;45334;-67
2021/11/11 06:58:24;;;;;;;;;68.25;53.00;;;;;4.33;80.79;102232.31;5065032;28;45260;-68
2021/11/11 07:00:56;;;;;;;;;72.75;55.50;;;;;4.38;81.71;102239.28;5065600;28;45647;-69
2021/11/11 07:03:22;;;;;;;;;68.00;54.00;;;;;4.38;80.73;102236.69;5065639;28;45489;-69
2021/11/11 07:05:48;;;;;;;;;71.75;54.00;;;;;4.43;80.37;102240.28;5065959;28;45322;-72
2021/11/11 07:08:15;;;;;;;;;66.00;54.00;;;;;4.44;81.38;102241.13;5065102;28;46256;-73
2021/11/11 07:10:43;;;;;;;;;62.25;48.50;;;;;4.48;81.36;102243.81;5065698;28;45318;-73
2021/11/11 07:13:09;;;;;;;;;74.25;57.50;;;;;4.50;80.77;102242.13;5065722;28;45221;-73
2021/11/11 07:15:35;;;;;;;;;75.00;56.75;;;;;4.55;80.67;102250.81;5065375;28;45228;-73
2021/11/11 07:18:01;;;;;;;;;77.50;59.75;;;;;4.61;80.65;102244.06;5064665;28;46031;-69
2021/11/11 07:20:26;;;;;;;;;71.50;54.00;;;;;4.66;81.49;102245.03;5065506;28;45295;-70
2021/11/11 07:22:54;;;;;;;;;69.75;53.25;;;;;4.69;80.91;102253.69;5063257;28;45297;-66
2021/11/11 07:25:20;;;;;;;;;71.00;55.75;;;;;4.72;80.58;102253.75;5054867;28;45719;-69
2021/11/11 07:27:46;;;;;;;;;77.50;56.00;;;;;4.71;80.72;102246.00;5061685;28;46701;-69
2021/11/11 07:30:15;;;;;;;;;69.75;55.00;;;;;4.65;80.19;102243.31;5061970;28;45366;-69
2021/11/11 07:32:41;;;;;;;;;75.75;56.75;;;;;4.63;80.83;102244.97;5062036;28;45173;-70
2021/11/11 07:35:09;;;;;;;;;73.00;57.50;;;;;4.62;80.73;102240.66;5062031;28;45468;-69
2021/11/11 07:37:40;;;;;;;;;70.00;53.00;;;;;4.62;80.71;102248.38;5058009;28;45415;-70
2021/11/11 07:40:07;;;;;;;;;76.75;56.00;;;;;4.64;80.32;102251.88;5061848;28;45287;-70
2021/11/11 07:42:33;;;;;;;;;75.50;55.00;;;;;4.67;81.44;102245.06;5062128;28;45280;-68
2021/11/11 07:44:59;;;;;;;;;72.75;57.00;;;;;4.71;80.75;102246.84;5060021;28;45304;-68
2021/11/11 07:47:27;;;;;;;;;77.25;55.75;;;;;4.80;80.87;102246.16;5060271;28;45438;-70
2021/11/11 07:49:55;;;;;;;;;78.00;57.50;;;;;4.89;81.16;102248.94;5061801;28;45284;-67
2021/11/11 07:52:20;;;;;;;;;74.25;58.25;;;;;4.93;81.01;102237.84;5061691;28;45371;-68
2021/11/11 07:54:47;;;;;;;;;76.75;57.75;;;;;5.02;81.46;102247.50;5055486;28;45345;-67
2021/11/11 07:57:13;;;;;;;;;70.50;55.25;;;;;5.14;80.56;102248.56;5058454;28;46286;-63
2021/11/11 07:59:41;;;;;;;;;75.25;60.50;;;;;5.25;81.23;102242.78;5061375;28;45381;-62
2021/11/11 08:02:07;;;;;;;;;69.25;58.25;;;;;5.34;80.95;102242.91;5061478;28;45512;-61
2021/11/11 08:04:32;;;;;;;;;71.00;54.25;;;;;5.41;80.49;102234.47;5061452;28;45265;-63
2021/11/11 08:06:58;;;;;;;;;61.50;51.25;;;;;5.52;80.74;102238.09;5059256;28;45236;-65
2021/11/11 08:09:23;;;;;;;;;71.25;56.25;;;;;5.55;80.14;102232.97;5061351;28;45252;-64
2021/11/11 08:11:49;;;;;;;;;78.50;60.00;;;;;5.62;79.76;102240.00;5060748;28;45611;-64
2021/11/11 08:14:15;;;;;;;;;70.00;56.00;;;;;5.57;80.01;102220.13;5059650;28;45571;-67
2021/11/11 08:16:41;;;;;;;;;76.75;59.00;;;;;5.60;79.72;102223.59;5061102;28;45379;-68
2021/11/11 08:19:06;;;;;;;;;78.00;56.75;;;;;5.62;79.67;102221.94;5060877;28;45275;-66
2021/11/11 08:21:33;;;;;;;;;74.50;56.00;;;;;5.63;79.76;102226.25;5061501;28;45505;-66
2021/11/11 08:23:58;;;;;;;;;62.50;51.00;;;;;5.61;80.40;102222.78;5050649;28;45901;-62
2021/11/11 08:26:24;;;;;;;;;76.00;58.00;;;;;5.61;79.71;102216.78;5052160;28;46189;-64
2021/11/11 08:28:49;;;;;;;;;76.25;52.25;;;;;5.60;79.71;102226.19;5052527;28;45345;-63
2021/11/11 08:31:16;;;;;;;;;75.25;53.50;;;;;5.55;80.62;102225.25;5060642;28;45443;-63
2021/11/11 08:33:41;;;;;;;;;71.00;50.75;;;;;5.57;80.23;102223.56;5060874;28;45586;-61
2021/11/11 08:36:07;;;;;;;;;68.25;53.75;;;;;5.56;80.96;102220.97;5058801;28;45912;-63
2021/11/11 08:38:32;;;;;;;;;70.00;55.75;;;;;5.57;81.02;102218.41;5060356;28;45327;-62
2021/11/11 08:40:58;;;;;;;;;76.25;55.00;;;;;5.59;79.88;102208.09;5060830;28;45799;-64
2021/11/11 08:43:23;;;;;;;;;74.75;57.75;;;;;5.59;80.37;102203.81;5059720;28;45385;-62
2021/11/11 08:45:49;;;;;;;;;80.00;59.75;;;;;5.67;80.40;102204.84;5057752;28;46195;-62
2021/11/11 08:48:16;;;;;;;;;68.75;55.50;;;;;5.73;80.49;102215.25;5061158;28;45578;-63
2021/11/11 08:50:42;;;;;;;;;73.75;58.00;;;;;5.83;80.65;102211.09;5061018;28;45246;-63
2021/11/11 08:53:09;;;;;;;;;77.50;56.50;;;;;5.90;80.51;102196.63;5056508;28;46364;-61
2021/11/11 08:55:36;;;;;;;;;78.25;58.25;;;;;6.00;80.61;102198.47;5057342;28;46080;-62
2021/11/11 08:58:06;;;;;;;;;71.75;55.75;;;;;6.09;80.02;102190.88;5060909;28;45299;-62
2021/11/11 09:00:34;;;;;;;;;82.25;59.75;;;;;6.16;80.12;102171.16;5060394;28;45423;-63
2021/11/11 09:03:02;;;;;;;;;78.25;59.00;;;;;6.30;79.68;102187.72;5060958;28;45375;-62
2021/11/11 09:05:32;;;;;;;;;80.50;58.25;;;;;6.39;79.97;102185.25;5060375;28;47432;-63
2021/11/11 09:08:00;;;;;;;;;78.25;59.50;;;;;6.46;79.61;102174.16;5060177;28;45440;-65
2021/11/11 09:10:26;;;;;;;;;74.75;57.25;;;;;6.61;79.71;102176.06;5056048;28;45292;-64
2021/11/11 09:12:53;;;;;;;;;85.25;60.75;;;;;6.70;79.46;102176.16;5055442;28;45457;-62
2021/11/11 09:15:22;;;;;;;;;81.25;59.75;;;;;6.77;79.05;102192.59;5060247;28;45177;-64
2021/11/11 09:17:48;;;;;;;;;80.75;60.00;;;;;6.79;78.54;102178.84;5059799;28;45353;-64
2021/11/11 09:20:15;;;;;;;;;71.00;49.25;;;;;6.86;78.89;102179.78;5060732;28;45416;-60
2021/11/11 09:22:41;;;;;;;;;78.75;59.50;;;;;6.92;78.72;102178.13;5058774;28;45471;-61
2021/11/11 09:25:09;;;;;;;;;81.00;59.25;;;;;7.01;78.19;102183.41;5048423;28;45362;-62
2021/11/11 09:27:35;;;;;;;;;79.00;59.25;;;;;7.11;78.06;102179.19;5060104;28;45200;-68
2021/11/11 09:30:05;;;;;;;;;72.25;55.50;;;;;7.49;79.98;102179.53;5053037;28;45287;-65
2021/11/11 09:32:30;;;;;;;;;74.50;58.50;;;;;8.60;78.21;102181.94;5059897;28;45346;-68
2021/11/11 09:34:56;;;;;;;;;76.25;60.00;;;;;9.45;76.72;102187.34;5060227;28;46106;-63
2021/11/11 09:37:21;;;;;;;;;82.50;58.00;;;;;10.19;74.77;102174.25;5058359;28;45395;-62
2021/11/11 09:39:47;;;;;;;;;80.25;59.00;;;;;10.78;72.55;102174.03;5060283;28;45362;-60
2021/11/11 09:42:12;;;;;;;;;77.75;57.75;;;;;10.93;71.34;102179.16;5059022;28;45591;-60
2021/11/11 09:44:38;;;;;;;;;73.75;54.50;;;;;10.73;69.78;102172.34;5057429;28;45413;-59
2021/11/11 09:47:04;;;;;;;;;65.75;53.75;;;;;10.51;70.36;102176.78;5058211;28;45228;-61
2021/11/11 09:49:30;;;;;;;;;79.50;57.50;;;;;10.31;70.18;102185.50;5059867;28;45195;-60
2021/11/11 09:51:56;;;;;;;;;76.50;57.00;;;;;10.16;70.54;102184.66;5058542;28;45269;-63
2021/11/11 09:59:41;;;;;;;;;80.25;58.50;;;;;11.48;71.17;102185.72;5059702;28;45279;-54
2021/11/11 10:02:08;;;;;;;;;81.50;63.00;;;;;12.22;69.38;102192.00;5058692;28;45468;-61
2021/11/11 10:04:36;;;;;;;;;70.25;54.00;;;;;12.65;68.31;102194.09;5058968;28;45292;-60
2021/11/11 10:07:02;;;;;;;;;78.00;60.00;;;;;12.75;66.64;102188.72;5059495;28;45755;-60
2021/11/11 10:09:28;;;;;;;;;79.75;59.50;;;;;12.54;65.27;102189.00;5059605;28;45306;-60
2021/11/11 10:11:57;;;;;;;;;76.00;58.00;;;;;13.23;65.22;102191.56;5059325;28;45639;-61
2021/11/11 10:14:34;;;;;;;;;75.50;54.50;;;;;13.45;65.92;102191.22;5059239;28;47657;-62
2021/11/11 10:17:03;;;;;;;;;80.25;60.25;;;;;12.90;64.81;102189.41;5059267;28;45786;-66
2021/11/11 10:19:31;;;;;;;;;76.25;58.25;;;;;12.65;64.72;102181.06;5058820;28;45324;-65
2021/11/11 10:22:07;;;;;;;;;78.25;58.50;;;;;13.39;66.51;102179.13;5059533;28;45441;-61
2021/11/11 10:24:49;;;;;;;;;74.25;55.75;;;;;14.11;63.72;102167.41;5047455;28;46773;-59
2021/11/11 10:30:17;;;;;;;;;74.75;58.25;;;;;14.28;61.63;102155.72;5047582;28;45421;-62
2021/11/11 10:32:51;;;;;;;;;81.00;60.50;;;;;14.19;62.11;102152.41;5050725;28;46432;-62
2021/11/11 10:35:22;;;;;;;;;84.25;65.75;;;;;15.24;61.61;102141.41;5058931;28;46250;-63
2021/11/11 10:37:58;;;;;;;;;76.75;58.50;;;;;14.66;60.05;102135.78;5058063;28;45322;-66
2021/11/11 10:40:33;;;;;;;;;75.00;56.00;;;;;13.95;60.76;102138.06;5059410;28;45396;-61
2021/11/11 10:43:10;;;;;;;;;76.75;57.25;;;;;13.35;61.58;102135.66;5059295;28;45555;-62
2021/11/11 10:45:43;;;;;;;;;83.00;62.00;;;;;12.84;61.15;102135.56;5055941;28;45518;-66
2021/11/11 10:48:11;;;;;;;;;78.75;60.25;;;;;12.66;60.97;102143.66;5058141;28;45457;-59
2021/11/11 10:50:40;;;;;;;;;77.00;56.00;;;;;12.61;62.26;102145.44;5058893;28;45606;-60
2021/11/11 10:53:11;;;;;;;;;82.50;64.00;;;;;13.56;64.58;102153.59;5054631;28;45625;-61
2021/11/11 10:55:48;;;;;;;;;86.25;65.50;;;;;16.97;61.24;102143.56;5056537;28;45442;-60
2021/11/11 10:58:19;;;;;;;;;80.25;61.50;;;;;18.08;56.97;102146.84;5058822;28;45294;-60
2021/11/11 11:00:58;;;;;;;;;77.75;60.75;;;;;17.71;54.22;102153.41;5057195;28;45358;-59
2021/11/11 11:03:31;;;;;;;;;76.50;59.25;;;;;16.87;54.63;102148.28;5060837;28;45319;-59
2021/11/11 11:05:57;;;;;;;;;78.25;61.75;;;;;16.79;56.45;102149.41;5062472;28;46244;-59
2021/11/11 11:08:26;;;;;;;;;77.25;62.75;;;;;18.26;55.52;102145.31;5061849;28;45299;-60
2021/11/11 11:11:02;;;;;;;;;78.00;62.00;;;;;17.83;52.92;102131.94;5062688;28;45317;-59
2021/11/11 11:13:35;;;;;;;;;79.75;66.50;;;;;17.15;52.85;102129.84;5062262;28;45216;-58
2021/11/11 11:16:05;;;;;;;;;79.75;65.00;;;;;17.35;55.16;102118.69;5062338;28;46210;-60
2021/11/11 11:18:40;;;;;;;;;82.25;64.00;;;;;17.50;53.59;102119.94;5061070;28;45723;-57
2021/11/11 11:21:16;;;;;;;;;83.50;64.50;;;;;17.86;54.71;102116.06;5062478;28;45312;-56
2021/11/11 11:23:49;;;;;;;;;83.25;65.50;;;;;18.40;51.32;102109.66;5054765;28;45340;-56
2021/11/11 11:26:29;;;;;;;;;83.75;67.50;;;;;17.69;51.60;102104.41;5058900;28;47088;-55
2021/11/11 11:29:03;;;;;;;;;82.00;65.75;;;;;16.94;51.82;102099.88;5061864;28;45426;-56
2021/11/11 11:31:41;;;;;;;;;80.75;63.75;;;;;17.27;53.32;102087.41;5055554;28;45385;-56
2021/11/11 11:34:13;;;;;;;;;81.75;64.00;;;;;17.71;51.71;102082.41;5061736;28;45317;-56
2021/11/11 11:36:49;;;;;;;;;81.25;63.00;;;;;17.80;51.93;102075.94;5050845;28;46281;-58
2021/11/11 11:39:42;;;;;;;;;89.75;70.00;;;;;20.30;53.18;102095.47;5057462;28;45682;-55
2021/11/11 11:42:13;;;;;;;;;81.75;65.00;;;;;20.41;47.12;102096.78;5061606;28;45240;-55
2021/11/11 11:44:41;;;;;;;;;83.00;70.25;;;;;19.28;48.02;102089.44;5049922;28;45260;-55
2021/11/11 11:47:17;;;;;;;;;84.50;67.00;;;;;18.26;48.92;102101.44;5060951;28;46071;-54
2021/11/11 11:49:47;;;;;;;;;81.25;63.75;;;;;17.36;49.79;102095.88;5061783;28;45421;-55
2021/11/11 11:52:14;;;;;;;;;81.00;63.25;;;;;16.70;50.72;102104.16;5061825;28;45520;-55
2021/11/11 11:55:06;;;;;;;;;77.00;60.25;;;;;16.17;51.41;102103.09;5054983;28;45435;-54